createdAt,value
2018-11-02T00:00:46.862Z,3.10
2018-11-02T00:05:58.181Z,2.30
2018-11-02T00:11:10.141Z,1.90
2018-11-02T00:16:27.709Z,1.70
2018-11-02T00:21:39.458Z,1.60
2018-11-02T00:27:03.605Z,1.00
2018-11-02T00:32:15.901Z,0.90
2018-11-02T00:37:25.253Z,1.10
2018-11-02T00:42:36.831Z,1.20
2018-11-02T00:47:49.560Z,1.10
2018-11-02T00:53:03.401Z,1.10
2018-11-02T00:58:25.555Z,1.30
2018-11-02T01:03:37.941Z,1.30
2018-11-02T01:14:02.464Z,2.00
2018-11-02T01:19:16.145Z,1.30
2018-11-02T01:24:28.346Z,1.20
2018-11-02T01:34:53.719Z,1.60
2018-11-02T01:40:11.567Z,1.80
2018-11-02T01:45:19.575Z,1.70
2018-11-02T01:50:31.685Z,2.00
2018-11-02T01:55:47.422Z,2.40
2018-11-02T02:00:59.463Z,2.70
2018-11-02T02:06:17.627Z,2.40
2018-11-02T02:11:37.514Z,2.50
2018-11-02T02:16:45.208Z,2.70
2018-11-02T02:22:00.174Z,3.00
2018-11-02T02:27:09.489Z,3.20
2018-11-02T02:32:30.301Z,3.40
2018-11-02T02:37:39.880Z,3.80
2018-11-02T02:42:55.822Z,4.00
2018-11-02T02:48:13.354Z,4.10
2018-11-02T03:03:56.718Z,6.50
2018-11-02T03:09:03.318Z,5.90
2018-11-02T03:14:13.380Z,6.30
2018-11-02T03:19:40.585Z,6.70
2018-11-02T03:24:48.032Z,6.60
2018-11-02T03:30:13.957Z,7.10
2018-11-02T03:35:25.300Z,6.70
2018-11-02T03:51:03.598Z,8.70
2018-11-02T03:56:18.020Z,8.50
2018-11-02T04:01:39.452Z,10.10
2018-11-02T04:06:53.774Z,8.90
2018-11-02T04:12:07.532Z,9.90
2018-11-02T04:17:21.217Z,10.20
2018-11-02T04:22:34.656Z,11.70
2018-11-02T04:33:08.231Z,14.30
2018-11-02T04:38:22.853Z,11.80
2018-11-02T04:43:40.132Z,12.60
2018-11-02T04:48:57.752Z,14.50
2018-11-02T04:59:32.826Z,16.60
2018-11-02T05:04:50.385Z,14.10
2018-11-02T05:10:08.095Z,13.30
2018-11-02T05:25:48.735Z,17.90
2018-11-02T05:31:03.027Z,16.80
2018-11-02T05:36:32.208Z,10.00
2018-11-02T05:57:29.434Z,16.60
2018-11-02T06:23:39.171Z,16.10
2018-11-02T07:57:37.324Z,16.80
2018-11-02T08:29:10.671Z,11.50
2018-11-02T08:56:41.708Z,10.30
2018-11-02T09:02:02.215Z,9.30
2018-11-02T09:07:44.184Z,9.80
2018-11-02T09:34:50.674Z,11.40
2018-11-02T09:40:08.816Z,10.20
2018-11-02T09:51:03.632Z,11.20
2018-11-02T10:24:49.393Z,8.60
2018-11-02T10:30:13.112Z,8.00
2018-11-02T10:35:23.152Z,7.50
2018-11-02T10:40:52.663Z,7.40
2018-11-02T10:45:59.230Z,6.90
2018-11-02T10:51:06.020Z,6.60
2018-11-02T10:56:49.995Z,6.10
2018-11-02T11:02:12.000Z,4.80
2018-11-02T11:07:48.324Z,4.80
2018-11-02T11:13:11.080Z,4.30
2018-11-02T11:24:35.084Z,4.80
2018-11-02T11:30:17.325Z,5.20
2018-11-02T11:35:32.591Z,4.00
2018-11-02T11:40:38.378Z,4.80
2018-11-02T11:46:04.250Z,4.40
2018-11-02T11:51:01.111Z,3.20
2018-11-02T11:56:11.982Z,3.60
2018-11-02T12:07:09.546Z,3.10
2018-11-02T12:18:00.692Z,2.70
2018-11-02T12:22:52.469Z,2.70
2018-11-02T12:27:56.756Z,2.50
2018-11-02T12:48:52.570Z,2.10
2018-11-02T12:53:56.254Z,1.90
2018-11-02T13:57:30.872Z,1.30
2018-11-02T14:02:31.880Z,2.80
2018-11-02T14:25:59.900Z,1.40
2018-11-02T14:30:48.358Z,1.70
2018-11-02T14:35:44.305Z,2.00
2018-11-02T14:40:50.573Z,1.10
2018-11-02T14:45:51.458Z,1.70
2018-11-02T14:50:52.675Z,1.20
2018-11-02T14:56:20.767Z,1.80
2018-11-02T15:01:34.405Z,1.30
2018-11-02T15:06:35.200Z,1.20
2018-11-02T15:11:40.327Z,2.00
2018-11-02T15:17:13.085Z,2.30
2018-11-02T15:51:22.754Z,11.60
2018-11-02T15:56:27.123Z,3.00
2018-11-02T16:01:33.790Z,2.10
2018-11-02T16:06:46.433Z,2.30
2018-11-02T16:11:59.039Z,2.60
2018-11-02T16:17:16.678Z,2.30
2018-11-02T16:22:33.099Z,2.70
